Pagrindinis puslapis
METAR-TAF:

METAR-TAF

Oro uostai :

Charbinas, Kinija

platuma: 45-45N, ilguma: 126-46E, Aukštis: 143 m

Dabartinis oras

Ataskaita buvo paskelbta 54 minutes, ne 03:00 UTC
Vėjas 6 kt iš Pietų
Temperatūra -6°C
Drėgmė 73%
Slėgis 1026 hPa
Matomumas: 2000 m
migla

METAR: ZYHB 240300Z 18003MPS 2000 HZ NSC M06/M10 Q1026 BECMG TL0430 3000

Laikas: 11:54 (03:54 UTC)

Prognozė

Ataskaita buvo paskelbta 6 valandos ir 41 minutes, ne 21:13 UTC
Prognozė galioja nuo 24 metu 00 UTC su 24 metu 24 UTC
Vėjas 6 kt iš Pietų/Pietryčių
Matomumas: 3000 m
Mažai debesys ne aukštis 3000 ft
rūkana
Laikinai
nuo 24 metu 00 UTC su 24 metu 04 UTC
Matomumas: 1200 m

TAF: ZYHB 232113Z 2400/2424 16003MPS 3000 BR FEW030 TXM02/2406Z TNM16/2421Z TEMPO 2400/2404 1200

Orai ataskaitas ir orų prognozės (METAR, TAF).

turimą stotys yra geltonos ir raudonos taškus žemėlapyje.

Perkelti pele per norėdami pamatyti stoties vardą.

Tada spustelėkite, norėdami matyti oro stebėjimo ir prognozės.

Norėdami pakeisti žemėlapį: spustelėkite ant žalios mygtukų su juodo kryžiaus žemyn,; žalią mygtuką su brūkšneliu, jei norite nutolinti; arba žalių rodyklių gretimoms žemėlapius.


METAR-TAF: